sensor_id;sensor_type;location;lat;lon;timestamp;pressure;altitude;pressure_sealevel;temperature
40968;BMP280;57377;45.130;6.038;2022-09-09T00:01:07;92626.28;;;18.19
40968;BMP280;57377;45.130;6.038;2022-09-09T00:03:48;92635.84;;;18.35
40968;BMP280;57377;45.130;6.038;2022-09-09T00:06:43;92634.75;;;18.13
40968;BMP280;57377;45.130;6.038;2022-09-09T00:09:16;92631.63;;;17.99
40968;BMP280;57377;45.130;6.038;2022-09-09T00:14:18;92640.41;;;18.03
40968;BMP280;57377;45.130;6.038;2022-09-09T00:16:53;92634.09;;;18.04
40968;BMP280;57377;45.130;6.038;2022-09-09T00:19:24;92636.66;;;17.80
40968;BMP280;57377;45.130;6.038;2022-09-09T00:22:46;92637.75;;;18.03
40968;BMP280;57377;45.130;6.038;2022-09-09T00:24:53;92635.78;;;17.88
40968;BMP280;57377;45.130;6.038;2022-09-09T00:27:25;92635.78;;;18.00
40968;BMP280;57377;45.130;6.038;2022-09-09T00:30:02;92634.19;;;18.31
40968;BMP280;57377;45.130;6.038;2022-09-09T00:32:29;92633.44;;;18.19
40968;BMP280;57377;45.130;6.038;2022-09-09T00:35:03;92625.06;;;18.05
40968;BMP280;57377;45.130;6.038;2022-09-09T00:37:29;92620.53;;;17.82
40968;BMP280;57377;45.130;6.038;2022-09-09T00:39:59;92616.91;;;17.98
40968;BMP280;57377;45.130;6.038;2022-09-09T00:42:43;92625.53;;;18.19
40968;BMP280;57377;45.130;6.038;2022-09-09T00:47:54;92624.75;;;18.06
40968;BMP280;57377;45.130;6.038;2022-09-09T00:50:29;92620.13;;;18.39
40968;BMP280;57377;45.130;6.038;2022-09-09T00:58:32;92609.03;;;17.98
40968;BMP280;57377;45.130;6.038;2022-09-09T01:01:11;92604.47;;;18.07
40968;BMP280;57377;45.130;6.038;2022-09-09T01:03:44;92608.56;;;17.72
40968;BMP280;57377;45.130;6.038;2022-09-09T01:06:21;92612.50;;;17.78
40968;BMP280;57377;45.130;6.038;2022-09-09T01:14:41;92604.81;;;17.18
40968;BMP280;57377;45.130;6.038;2022-09-09T01:17:15;92603.47;;;17.44
40968;BMP280;57377;45.130;6.038;2022-09-09T01:27:33;92603.63;;;17.27
40968;BMP280;57377;45.130;6.038;2022-09-09T01:30:00;92605.47;;;17.59
40968;BMP280;57377;45.130;6.038;2022-09-09T01:32:47;92614.13;;;17.59
40968;BMP280;57377;45.130;6.038;2022-09-09T01:38:03;92620.56;;;17.50
40968;BMP280;57377;45.130;6.038;2022-09-09T01:40:28;92617.84;;;17.46
40968;BMP280;57377;45.130;6.038;2022-09-09T01:42:54;92611.53;;;17.27
40968;BMP280;57377;45.130;6.038;2022-09-09T01:45:21;92616.53;;;17.52
40968;BMP280;57377;45.130;6.038;2022-09-09T01:47:47;92611.81;;;17.46
40968;BMP280;57377;45.130;6.038;2022-09-09T01:50:15;92607.53;;;17.41
40968;BMP280;57377;45.130;6.038;2022-09-09T01:52:42;92602.22;;;17.30
40968;BMP280;57377;45.130;6.038;2022-09-09T01:55:08;92598.91;;;17.21
40968;BMP280;57377;45.130;6.038;2022-09-09T01:57:55;92605.56;;;17.62
40968;BMP280;57377;45.130;6.038;2022-09-09T02:00:22;92601.88;;;17.75
40968;BMP280;57377;45.130;6.038;2022-09-09T02:03:09;92609.56;;;17.80
40968;BMP280;57377;45.130;6.038;2022-09-09T02:05:43;92607.00;;;17.48
40968;BMP280;57377;45.130;6.038;2022-09-09T02:08:24;92603.75;;;17.31
40968;BMP280;57377;45.130;6.038;2022-09-09T02:11:05;92602.88;;;17.27
40968;BMP280;57377;45.130;6.038;2022-09-09T02:13:36;92605.72;;;17.22
40968;BMP280;57377;45.130;6.038;2022-09-09T02:16:22;92601.41;;;17.17
40968;BMP280;57377;45.130;6.038;2022-09-09T02:19:02;92600.56;;;17.25
40968;BMP280;57377;45.130;6.038;2022-09-09T02:21:30;92599.75;;;17.13
40968;BMP280;57377;45.130;6.038;2022-09-09T02:23:59;92594.78;;;17.11
40968;BMP280;57377;45.130;6.038;2022-09-09T02:26:26;92599.66;;;17.21
40968;BMP280;57377;45.130;6.038;2022-09-09T02:28:54;92607.13;;;17.19
40968;BMP280;57377;45.130;6.038;2022-09-09T02:31:22;92613.66;;;16.93
40968;BMP280;57377;45.130;6.038;2022-09-09T02:33:52;92606.16;;;17.03
40968;BMP280;57377;45.130;6.038;2022-09-09T02:36:19;92613.13;;;17.00
40968;BMP280;57377;45.130;6.038;2022-09-09T02:38:47;92622.88;;;16.99
40968;BMP280;57377;45.130;6.038;2022-09-09T02:41:18;92620.97;;;16.88
40968;BMP280;57377;45.130;6.038;2022-09-09T02:43:52;92624.09;;;17.01
40968;BMP280;57377;45.130;6.038;2022-09-09T02:46:22;92616.22;;;17.01
40968;BMP280;57377;45.130;6.038;2022-09-09T02:49:02;92611.63;;;16.78
40968;BMP280;57377;45.130;6.038;2022-09-09T02:52:11;92621.16;;;17.03
40968;BMP280;57377;45.130;6.038;2022-09-09T02:54:40;92610.94;;;17.01
40968;BMP280;57377;45.130;6.038;2022-09-09T02:57:28;92607.88;;;17.00
40968;BMP280;57377;45.130;6.038;2022-09-09T02:59:57;92602.38;;;16.72
40968;BMP280;57377;45.130;6.038;2022-09-09T03:02:23;92600.84;;;16.92
40968;BMP280;57377;45.130;6.038;2022-09-09T03:04:50;92607.00;;;16.96
40968;BMP280;57377;45.130;6.038;2022-09-09T03:07:17;92605.03;;;17.04
40968;BMP280;57377;45.130;6.038;2022-09-09T03:09:43;92606.75;;;16.89
40968;BMP280;57377;45.130;6.038;2022-09-09T03:12:09;92612.66;;;16.86
40968;BMP280;57377;45.130;6.038;2022-09-09T03:14:36;92608.84;;;16.75
40968;BMP280;57377;45.130;6.038;2022-09-09T03:17:04;92606.16;;;16.63
40968;BMP280;57377;45.130;6.038;2022-09-09T03:19:29;92603.28;;;16.56
40968;BMP280;57377;45.130;6.038;2022-09-09T03:21:55;92605.22;;;16.47
40968;BMP280;57377;45.130;6.038;2022-09-09T03:24:21;92606.34;;;16.58
40968;BMP280;57377;45.130;6.038;2022-09-09T03:26:48;92616.59;;;16.23
40968;BMP280;57377;45.130;6.038;2022-09-09T03:29:16;92615.81;;;16.31
40968;BMP280;57377;45.130;6.038;2022-09-09T03:31:44;92615.00;;;16.59
40968;BMP280;57377;45.130;6.038;2022-09-09T03:34:10;92611.94;;;16.57
40968;BMP280;57377;45.130;6.038;2022-09-09T03:36:36;92604.91;;;16.69
40968;BMP280;57377;45.130;6.038;2022-09-09T03:39:02;92600.00;;;16.79
40968;BMP280;57377;45.130;6.038;2022-09-09T03:41:28;92610.28;;;16.93
40968;BMP280;57377;45.130;6.038;2022-09-09T03:43:54;92612.59;;;16.74
40968;BMP280;57377;45.130;6.038;2022-09-09T03:46:20;92613.09;;;16.68
40968;BMP280;57377;45.130;6.038;2022-09-09T03:48:47;92619.47;;;16.58
40968;BMP280;57377;45.130;6.038;2022-09-09T03:51:42;92617.00;;;16.62
40968;BMP280;57377;45.130;6.038;2022-09-09T03:54:29;92630.50;;;16.52
40968;BMP280;57377;45.130;6.038;2022-09-09T03:57:11;92633.38;;;16.38
40968;BMP280;57377;45.130;6.038;2022-09-09T03:59:47;92630.66;;;16.27
40968;BMP280;57377;45.130;6.038;2022-09-09T04:02:33;92632.34;;;16.31
40968;BMP280;57377;45.130;6.038;2022-09-09T04:05:01;92632.06;;;16.24
40968;BMP280;57377;45.130;6.038;2022-09-09T04:07:34;92636.53;;;16.24
40968;BMP280;57377;45.130;6.038;2022-09-09T04:10:10;92634.22;;;16.22
40968;BMP280;57377;45.130;6.038;2022-09-09T04:15:38;92631.06;;;16.00
40968;BMP280;57377;45.130;6.038;2022-09-09T04:18:32;92625.47;;;16.10
40968;BMP280;57377;45.130;6.038;2022-09-09T04:21:35;92623.53;;;16.76
40968;BMP280;57377;45.130;6.038;2022-09-09T04:24:41;92620.97;;;16.47
40968;BMP280;57377;45.130;6.038;2022-09-09T04:27:07;92634.66;;;16.33
40968;BMP280;57377;45.130;6.038;2022-09-09T04:29:32;92636.19;;;16.34
40968;BMP280;57377;45.130;6.038;2022-09-09T04:32:01;92627.25;;;15.89
40968;BMP280;57377;45.130;6.038;2022-09-09T04:34:26;92625.94;;;15.75
40968;BMP280;57377;45.130;6.038;2022-09-09T04:36:51;92624.13;;;16.04
40968;BMP280;57377;45.130;6.038;2022-09-09T04:39:17;92623.94;;;16.09
40968;BMP280;57377;45.130;6.038;2022-09-09T04:42:22;92627.50;;;16.04
40968;BMP280;57377;45.130;6.038;2022-09-09T04:45:14;92625.16;;;15.74
40968;BMP280;57377;45.130;6.038;2022-09-09T04:47:39;92632.75;;;16.04
40968;BMP280;57377;45.130;6.038;2022-09-09T04:50:05;92644.28;;;16.12
40968;BMP280;57377;45.130;6.038;2022-09-09T04:52:31;92638.56;;;15.81
40968;BMP280;57377;45.130;6.038;2022-09-09T04:54:56;92631.44;;;15.90
40968;BMP280;57377;45.130;6.038;2022-09-09T04:57:22;92635.31;;;16.13
40968;BMP280;57377;45.130;6.038;2022-09-09T04:59:47;92631.72;;;15.97
40968;BMP280;57377;45.130;6.038;2022-09-09T05:02:13;92632.41;;;15.77
40968;BMP280;57377;45.130;6.038;2022-09-09T05:04:38;92631.56;;;15.94
40968;BMP280;57377;45.130;6.038;2022-09-09T05:07:03;92632.13;;;15.71
40968;BMP280;57377;45.130;6.038;2022-09-09T05:09:29;92631.94;;;15.75
40968;BMP280;57377;45.130;6.038;2022-09-09T05:11:55;92636.38;;;16.29
40968;BMP280;57377;45.130;6.038;2022-09-09T05:14:21;92634.09;;;16.47
40968;BMP280;57377;45.130;6.038;2022-09-09T05:16:46;92633.81;;;16.03
40968;BMP280;57377;45.130;6.038;2022-09-09T05:19:12;92639.34;;;16.19
40968;BMP280;57377;45.130;6.038;2022-09-09T05:21:38;92647.09;;;16.07
40968;BMP280;57377;45.130;6.038;2022-09-09T05:24:03;92649.50;;;15.92
40968;BMP280;57377;45.130;6.038;2022-09-09T05:26:29;92639.81;;;16.12
40968;BMP280;57377;45.130;6.038;2022-09-09T05:28:55;92636.44;;;15.75
40968;BMP280;57377;45.130;6.038;2022-09-09T05:31:21;92639.06;;;15.67
40968;BMP280;57377;45.130;6.038;2022-09-09T05:33:47;92650.16;;;15.72
40968;BMP280;57377;45.130;6.038;2022-09-09T05:36:18;92659.13;;;15.71
40968;BMP280;57377;45.130;6.038;2022-09-09T05:38:44;92658.13;;;15.84
40968;BMP280;57377;45.130;6.038;2022-09-09T05:41:11;92660.16;;;15.78
40968;BMP280;57377;45.130;6.038;2022-09-09T05:43:37;92661.44;;;15.73
40968;BMP280;57377;45.130;6.038;2022-09-09T05:46:05;92666.22;;;15.71
40968;BMP280;57377;45.130;6.038;2022-09-09T05:48:32;92664.88;;;16.02
40968;BMP280;57377;45.130;6.038;2022-09-09T05:50:58;92661.88;;;16.20
40968;BMP280;57377;45.130;6.038;2022-09-09T05:53:24;92667.56;;;15.76
40968;BMP280;57377;45.130;6.038;2022-09-09T05:55:50;92667.88;;;15.83
40968;BMP280;57377;45.130;6.038;2022-09-09T05:58:16;92661.63;;;15.96
40968;BMP280;57377;45.130;6.038;2022-09-09T06:00:42;92666.06;;;16.21
40968;BMP280;57377;45.130;6.038;2022-09-09T06:03:10;92671.97;;;16.67
40968;BMP280;57377;45.130;6.038;2022-09-09T06:05:36;92666.88;;;16.41
40968;BMP280;57377;45.130;6.038;2022-09-09T06:08:01;92663.63;;;16.16
40968;BMP280;57377;45.130;6.038;2022-09-09T06:10:27;92667.22;;;15.95
40968;BMP280;57377;45.130;6.038;2022-09-09T06:12:53;92664.53;;;16.03
40968;BMP280;57377;45.130;6.038;2022-09-09T06:15:18;92667.28;;;15.70
40968;BMP280;57377;45.130;6.038;2022-09-09T06:17:44;92669.09;;;15.86
40968;BMP280;57377;45.130;6.038;2022-09-09T06:20:10;92671.50;;;16.16
40968;BMP280;57377;45.130;6.038;2022-09-09T06:22:36;92667.28;;;16.23
40968;BMP280;57377;45.130;6.038;2022-09-09T06:25:04;92671.66;;;16.39
40968;BMP280;57377;45.130;6.038;2022-09-09T06:27:29;92657.56;;;16.44
40968;BMP280;57377;45.130;6.038;2022-09-09T06:29:55;92650.81;;;16.43
40968;BMP280;57377;45.130;6.038;2022-09-09T06:32:21;92653.47;;;16.35
40968;BMP280;57377;45.130;6.038;2022-09-09T06:34:46;92656.50;;;16.45
40968;BMP280;57377;45.130;6.038;2022-09-09T06:37:14;92643.78;;;16.96
40968;BMP280;57377;45.130;6.038;2022-09-09T06:39:39;92644.03;;;17.02
40968;BMP280;57377;45.130;6.038;2022-09-09T06:42:05;92646.53;;;16.99
40968;BMP280;57377;45.130;6.038;2022-09-09T06:44:31;92657.16;;;16.62
40968;BMP280;57377;45.130;6.038;2022-09-09T06:46:58;92645.66;;;16.46
40968;BMP280;57377;45.130;6.038;2022-09-09T06:49:24;92653.25;;;16.68
40968;BMP280;57377;45.130;6.038;2022-09-09T06:51:49;92662.47;;;16.54
40968;BMP280;57377;45.130;6.038;2022-09-09T06:54:15;92659.22;;;16.77
40968;BMP280;57377;45.130;6.038;2022-09-09T06:56:41;92663.44;;;16.90
40968;BMP280;57377;45.130;6.038;2022-09-09T06:59:08;92673.53;;;16.88
40968;BMP280;57377;45.130;6.038;2022-09-09T07:01:42;92679.59;;;17.40
40968;BMP280;57377;45.130;6.038;2022-09-09T07:04:14;92681.84;;;16.90
40968;BMP280;57377;45.130;6.038;2022-09-09T07:06:42;92680.50;;;16.84
40968;BMP280;57377;45.130;6.038;2022-09-09T07:09:13;92688.91;;;16.98
40968;BMP280;57377;45.130;6.038;2022-09-09T07:11:44;92680.81;;;17.31
40968;BMP280;57377;45.130;6.038;2022-09-09T07:14:11;92682.22;;;17.40
40968;BMP280;57377;45.130;6.038;2022-09-09T07:16:39;92670.38;;;17.66
40968;BMP280;57377;45.130;6.038;2022-09-09T07:19:05;92664.22;;;17.51
40968;BMP280;57377;45.130;6.038;2022-09-09T07:21:32;92676.13;;;17.80
40968;BMP280;57377;45.130;6.038;2022-09-09T07:23:58;92689.00;;;17.30
40968;BMP280;57377;45.130;6.038;2022-09-09T07:26:27;92679.97;;;18.38
40968;BMP280;57377;45.130;6.038;2022-09-09T07:28:54;92678.34;;;19.20
40968;BMP280;57377;45.130;6.038;2022-09-09T07:31:26;92683.25;;;19.06
40968;BMP280;57377;45.130;6.038;2022-09-09T07:33:52;92689.47;;;19.14
40968;BMP280;57377;45.130;6.038;2022-09-09T07:36:29;92682.25;;;18.28
40968;BMP280;57377;45.130;6.038;2022-09-09T07:38:57;92683.09;;;18.91
40968;BMP280;57377;45.130;6.038;2022-09-09T07:43:51;92672.50;;;19.27
40968;BMP280;57377;45.130;6.038;2022-09-09T07:46:19;92671.06;;;19.29
40968;BMP280;57377;45.130;6.038;2022-09-09T07:48:50;92663.97;;;19.72
40968;BMP280;57377;45.130;6.038;2022-09-09T07:51:20;92671.69;;;19.77
40968;BMP280;57377;45.130;6.038;2022-09-09T07:53:48;92667.91;;;20.05
40968;BMP280;57377;45.130;6.038;2022-09-09T07:56:16;92664.22;;;20.09
40968;BMP280;57377;45.130;6.038;2022-09-09T07:58:47;92676.25;;;20.68
40968;BMP280;57377;45.130;6.038;2022-09-09T08:01:18;92669.59;;;21.42
40968;BMP280;57377;45.130;6.038;2022-09-09T08:03:52;92663.88;;;20.72
40968;BMP280;57377;45.130;6.038;2022-09-09T08:06:22;92670.84;;;21.66
40968;BMP280;57377;45.130;6.038;2022-09-09T08:08:50;92662.13;;;22.70
40968;BMP280;57377;45.130;6.038;2022-09-09T08:11:16;92674.19;;;22.89
40968;BMP280;57377;45.130;6.038;2022-09-09T08:13:43;92666.88;;;23.34
40968;BMP280;57377;45.130;6.038;2022-09-09T08:16:15;92664.16;;;23.60
40968;BMP280;57377;45.130;6.038;2022-09-09T08:18:41;92675.69;;;23.67
40968;BMP280;57377;45.130;6.038;2022-09-09T08:21:08;92683.47;;;23.53
40968;BMP280;57377;45.130;6.038;2022-09-09T08:23:34;92679.88;;;23.43
40968;BMP280;57377;45.130;6.038;2022-09-09T08:26:06;92686.31;;;23.16
40968;BMP280;57377;45.130;6.038;2022-09-09T08:28:32;92683.78;;;22.75
40968;BMP280;57377;45.130;6.038;2022-09-09T08:33:35;92663.47;;;21.75
40968;BMP280;57377;45.130;6.038;2022-09-09T08:36:03;92668.97;;;21.48
40968;BMP280;57377;45.130;6.038;2022-09-09T08:38:29;92674.13;;;21.60
40968;BMP280;57377;45.130;6.038;2022-09-09T08:41:04;92673.00;;;21.80
40968;BMP280;57377;45.130;6.038;2022-09-09T08:43:33;92681.94;;;20.85
40968;BMP280;57377;45.130;6.038;2022-09-09T08:46:23;92678.88;;;21.17
40968;BMP280;57377;45.130;6.038;2022-09-09T08:48:59;92691.50;;;20.90
40968;BMP280;57377;45.130;6.038;2022-09-09T08:51:29;92676.50;;;21.12
40968;BMP280;57377;45.130;6.038;2022-09-09T08:53:58;92675.25;;;21.40
40968;BMP280;57377;45.130;6.038;2022-09-09T08:56:27;92677.63;;;20.31
40968;BMP280;57377;45.130;6.038;2022-09-09T08:58:54;92690.53;;;19.52
40968;BMP280;57377;45.130;6.038;2022-09-09T09:10:15;92673.50;;;20.19
40968;BMP280;57377;45.130;6.038;2022-09-09T09:12:46;92673.19;;;19.78
40968;BMP280;57377;45.130;6.038;2022-09-09T09:15:23;92673.75;;;19.83
40968;BMP280;57377;45.130;6.038;2022-09-09T09:17:49;92668.31;;;20.22
40968;BMP280;57377;45.130;6.038;2022-09-09T09:20:16;92667.84;;;19.90
40968;BMP280;57377;45.130;6.038;2022-09-09T09:22:50;92682.00;;;19.70
40968;BMP280;57377;45.130;6.038;2022-09-09T09:25:31;92662.50;;;20.47
40968;BMP280;57377;45.130;6.038;2022-09-09T09:30:29;92658.63;;;21.24
40968;BMP280;57377;45.130;6.038;2022-09-09T09:33:12;92659.88;;;21.30
40968;BMP280;57377;45.130;6.038;2022-09-09T09:35:39;92669.19;;;21.24
40968;BMP280;57377;45.130;6.038;2022-09-09T09:38:22;92661.19;;;21.21
40968;BMP280;57377;45.130;6.038;2022-09-09T09:40:50;92670.84;;;21.66
40968;BMP280;57377;45.130;6.038;2022-09-09T09:43:24;92674.69;;;21.69
40968;BMP280;57377;45.130;6.038;2022-09-09T09:45:50;92666.69;;;21.47
40968;BMP280;57377;45.130;6.038;2022-09-09T09:48:15;92674.06;;;21.04
40968;BMP280;57377;45.130;6.038;2022-09-09T09:50:50;92669.47;;;21.54
40968;BMP280;57377;45.130;6.038;2022-09-09T09:53:23;92666.66;;;21.84
40968;BMP280;57377;45.130;6.038;2022-09-09T09:55:57;92654.22;;;22.07
40968;BMP280;57377;45.130;6.038;2022-09-09T09:58:23;92664.84;;;22.51
40968;BMP280;57377;45.130;6.038;2022-09-09T10:00:52;92668.94;;;22.04
40968;BMP280;57377;45.130;6.038;2022-09-09T10:03:24;92657.19;;;21.83
40968;BMP280;57377;45.130;6.038;2022-09-09T10:05:50;92649.78;;;21.92
40968;BMP280;57377;45.130;6.038;2022-09-09T10:08:16;92643.50;;;22.44
40968;BMP280;57377;45.130;6.038;2022-09-09T10:11:00;92646.53;;;22.68
40968;BMP280;57377;45.130;6.038;2022-09-09T10:16:29;92630.72;;;22.27
40968;BMP280;57377;45.130;6.038;2022-09-09T10:26:48;92603.78;;;23.24
40968;BMP280;57377;45.130;6.038;2022-09-09T10:32:21;92600.50;;;23.38
40968;BMP280;57377;45.130;6.038;2022-09-09T10:35:09;92596.09;;;23.81
40968;BMP280;57377;45.130;6.038;2022-09-09T10:40:31;92577.31;;;24.03
40968;BMP280;57377;45.130;6.038;2022-09-09T10:43:16;92571.38;;;24.16
40968;BMP280;57377;45.130;6.038;2022-09-09T10:51:25;92566.00;;;24.56
40968;BMP280;57377;45.130;6.038;2022-09-09T10:54:06;92555.41;;;24.59
40968;BMP280;57377;45.130;6.038;2022-09-09T10:56:37;92558.88;;;24.63
40968;BMP280;57377;45.130;6.038;2022-09-09T10:59:12;92553.47;;;24.53
40968;BMP280;57377;45.130;6.038;2022-09-09T11:01:45;92547.50;;;24.70
40968;BMP280;57377;45.130;6.038;2022-09-09T11:04:21;92549.47;;;24.83
40968;BMP280;57377;45.130;6.038;2022-09-09T11:06:50;92549.16;;;24.91
40968;BMP280;57377;45.130;6.038;2022-09-09T11:09:21;92552.25;;;25.00
40968;BMP280;57377;45.130;6.038;2022-09-09T11:11:54;92546.91;;;24.90
40968;BMP280;57377;45.130;6.038;2022-09-09T11:14:29;92542.00;;;25.06
40968;BMP280;57377;45.130;6.038;2022-09-09T11:17:01;92543.13;;;25.01
40968;BMP280;57377;45.130;6.038;2022-09-09T11:19:41;92536.59;;;24.88
40968;BMP280;57377;45.130;6.038;2022-09-09T11:22:15;92533.63;;;25.00
40968;BMP280;57377;45.130;6.038;2022-09-09T11:24:52;92518.69;;;24.85
40968;BMP280;57377;45.130;6.038;2022-09-09T11:35:26;92536.94;;;24.83
40968;BMP280;57377;45.130;6.038;2022-09-09T11:38:01;92530.81;;;24.79
40968;BMP280;57377;45.130;6.038;2022-09-09T11:40:32;92535.59;;;25.17
40968;BMP280;57377;45.130;6.038;2022-09-09T11:45:55;92534.38;;;24.97
40968;BMP280;57377;45.130;6.038;2022-09-09T11:48:39;92534.84;;;25.20
40968;BMP280;57377;45.130;6.038;2022-09-09T11:51:25;92543.47;;;24.96
40968;BMP280;57377;45.130;6.038;2022-09-09T11:59:50;92546.69;;;25.29
40968;BMP280;57377;45.130;6.038;2022-09-09T12:02:23;92556.63;;;25.36
40968;BMP280;57377;45.130;6.038;2022-09-09T12:05:18;92553.97;;;25.43
40968;BMP280;57377;45.130;6.038;2022-09-09T12:08:01;92557.28;;;25.12
40968;BMP280;57377;45.130;6.038;2022-09-09T12:10:40;92563.75;;;25.14
40968;BMP280;57377;45.130;6.038;2022-09-09T12:13:19;92561.03;;;25.08
40968;BMP280;57377;45.130;6.038;2022-09-09T12:19:21;92570.53;;;25.05
40968;BMP280;57377;45.130;6.038;2022-09-09T12:22:16;92564.59;;;25.39
40968;BMP280;57377;45.130;6.038;2022-09-09T12:33:18;92553.88;;;25.25
40968;BMP280;57377;45.130;6.038;2022-09-09T12:36:03;92567.66;;;25.44
40968;BMP280;57377;45.130;6.038;2022-09-09T12:38:36;92561.16;;;25.28
40968;BMP280;57377;45.130;6.038;2022-09-09T12:41:22;92552.81;;;25.33
40968;BMP280;57377;45.130;6.038;2022-09-09T12:44:08;92550.06;;;25.19
40968;BMP280;57377;45.130;6.038;2022-09-09T12:46:40;92546.41;;;25.51
40968;BMP280;57377;45.130;6.038;2022-09-09T12:51:57;92548.13;;;25.13
40968;BMP280;57377;45.130;6.038;2022-09-09T12:54:25;92553.88;;;25.22
40968;BMP280;57377;45.130;6.038;2022-09-09T12:56:51;92538.75;;;25.46
40968;BMP280;57377;45.130;6.038;2022-09-09T12:59:38;92538.34;;;24.64
40968;BMP280;57377;45.130;6.038;2022-09-09T13:02:22;92536.72;;;25.09
40968;BMP280;57377;45.130;6.038;2022-09-09T13:08:22;92536.34;;;25.11
40968;BMP280;57377;45.130;6.038;2022-09-09T13:10:51;92533.28;;;25.05
40968;BMP280;57377;45.130;6.038;2022-09-09T13:14:01;92526.50;;;25.21
40968;BMP280;57377;45.130;6.038;2022-09-09T13:16:29;92535.75;;;24.78
40968;BMP280;57377;45.130;6.038;2022-09-09T13:19:19;92538.22;;;25.07
40968;BMP280;57377;45.130;6.038;2022-09-09T13:21:58;92537.13;;;25.18
40968;BMP280;57377;45.130;6.038;2022-09-09T13:24:28;92547.03;;;25.28
40968;BMP280;57377;45.130;6.038;2022-09-09T13:27:26;92548.06;;;24.99
40968;BMP280;57377;45.130;6.038;2022-09-09T13:29:56;92546.91;;;24.90
40968;BMP280;57377;45.130;6.038;2022-09-09T13:32:26;92533.28;;;25.09
40968;BMP280;57377;45.130;6.038;2022-09-09T13:35:00;92534.09;;;25.23
40968;BMP280;57377;45.130;6.038;2022-09-09T13:37:35;92545.78;;;24.98
40968;BMP280;57377;45.130;6.038;2022-09-09T13:40:05;92537.94;;;24.62
40968;BMP280;57377;45.130;6.038;2022-09-09T13:42:33;92536.13;;;24.79
40968;BMP280;57377;45.130;6.038;2022-09-09T13:45:03;92539.38;;;25.09
40968;BMP280;57377;45.130;6.038;2022-09-09T13:47:36;92532.56;;;25.15
40968;BMP280;57377;45.130;6.038;2022-09-09T13:52:55;92542.84;;;25.20
40968;BMP280;57377;45.130;6.038;2022-09-09T13:55:36;92539.09;;;24.68
40968;BMP280;57377;45.130;6.038;2022-09-09T13:58:35;92545.88;;;24.55
40968;BMP280;57377;45.130;6.038;2022-09-09T14:01:20;92545.06;;;24.44
40968;BMP280;57377;45.130;6.038;2022-09-09T14:04:04;92551.84;;;24.38
40968;BMP280;57377;45.130;6.038;2022-09-09T14:06:39;92545.00;;;24.37
40968;BMP280;57377;45.130;6.038;2022-09-09T14:12:20;92540.19;;;24.10
40968;BMP280;57377;45.130;6.038;2022-09-09T14:14:53;92539.06;;;24.14
40968;BMP280;57377;45.130;6.038;2022-09-09T14:17:21;92540.78;;;23.90
40968;BMP280;57377;45.130;6.038;2022-09-09T14:19:59;92536.00;;;24.06
40968;BMP280;57377;45.130;6.038;2022-09-09T14:22:25;92543.28;;;24.15
40968;BMP280;57377;45.130;6.038;2022-09-09T14:31:01;92548.97;;;24.17
40968;BMP280;57377;45.130;6.038;2022-09-09T14:33:53;92565.03;;;23.85
40968;BMP280;57377;45.130;6.038;2022-09-09T14:36:58;92572.22;;;24.24
40968;BMP280;57377;45.130;6.038;2022-09-09T14:39:46;92561.81;;;23.69
40968;BMP280;57377;45.130;6.038;2022-09-09T14:45:24;92560.84;;;23.51
40968;BMP280;57377;45.130;6.038;2022-09-09T14:48:11;92567.94;;;23.73
40968;BMP280;57377;45.130;6.038;2022-09-09T14:50:56;92563.84;;;23.47
40968;BMP280;57377;45.130;6.038;2022-09-09T14:53:42;92558.72;;;23.64
40968;BMP280;57377;45.130;6.038;2022-09-09T14:56:34;92567.34;;;23.90
40968;BMP280;57377;45.130;6.038;2022-09-09T14:59:28;92573.22;;;23.37
40968;BMP280;57377;45.130;6.038;2022-09-09T15:02:03;92572.38;;;23.30
40968;BMP280;57377;45.130;6.038;2022-09-09T15:04:52;92576.50;;;22.73
40968;BMP280;57377;45.130;6.038;2022-09-09T15:07:35;92578.44;;;23.01
40968;BMP280;57377;45.130;6.038;2022-09-09T15:10:19;92570.84;;;23.00
40968;BMP280;57377;45.130;6.038;2022-09-09T15:12:55;92574.66;;;23.02
40968;BMP280;57377;45.130;6.038;2022-09-09T15:15:24;92570.53;;;22.79
40968;BMP280;57377;45.130;6.038;2022-09-09T15:17:51;92568.56;;;22.98
40968;BMP280;57377;45.130;6.038;2022-09-09T15:20:17;92577.38;;;23.38
40968;BMP280;57377;45.130;6.038;2022-09-09T15:22:42;92578.50;;;23.37
40968;BMP280;57377;45.130;6.038;2022-09-09T15:25:18;92579.16;;;23.27
40968;BMP280;57377;45.130;6.038;2022-09-09T15:27:44;92580.75;;;23.32
40968;BMP280;57377;45.130;6.038;2022-09-09T15:30:27;92579.75;;;23.14
40968;BMP280;57377;45.130;6.038;2022-09-09T15:32:52;92581.28;;;22.86
40968;BMP280;57377;45.130;6.038;2022-09-09T15:35:18;92578.94;;;23.10
40968;BMP280;57377;45.130;6.038;2022-09-09T15:37:44;92585.69;;;23.04
40968;BMP280;57377;45.130;6.038;2022-09-09T15:40:10;92583.72;;;23.27
40968;BMP280;57377;45.130;6.038;2022-09-09T15:42:36;92575.16;;;23.11
40968;BMP280;57377;45.130;6.038;2022-09-09T15:45:04;92569.22;;;22.92
40968;BMP280;57377;45.130;6.038;2022-09-09T15:47:31;92568.38;;;22.85
40968;BMP280;57377;45.130;6.038;2022-09-09T15:49:57;92578.09;;;22.77
40968;BMP280;57377;45.130;6.038;2022-09-09T15:52:22;92560.38;;;22.59
40968;BMP280;57377;45.130;6.038;2022-09-09T15:54:48;92560.81;;;22.86
40968;BMP280;57377;45.130;6.038;2022-09-09T15:57:14;92567.75;;;22.69
40968;BMP280;57377;45.130;6.038;2022-09-09T15:59:39;92572.44;;;22.79
40968;BMP280;57377;45.130;6.038;2022-09-09T16:02:05;92574.91;;;22.90
40968;BMP280;57377;45.130;6.038;2022-09-09T16:04:31;92566.16;;;22.90
40968;BMP280;57377;45.130;6.038;2022-09-09T16:07:02;92561.44;;;22.80
40968;BMP280;57377;45.130;6.038;2022-09-09T16:09:28;92567.25;;;22.60
40968;BMP280;57377;45.130;6.038;2022-09-09T16:11:59;92571.06;;;22.37
40968;BMP280;57377;45.130;6.038;2022-09-09T16:14:26;92567.34;;;22.41
40968;BMP280;57377;45.130;6.038;2022-09-09T16:16:57;92572.22;;;22.39
40968;BMP280;57377;45.130;6.038;2022-09-09T16:19:22;92561.53;;;22.58
40968;BMP280;57377;45.130;6.038;2022-09-09T16:21:49;92557.53;;;22.71
40968;BMP280;57377;45.130;6.038;2022-09-09T16:24:17;92565.91;;;22.47
40968;BMP280;57377;45.130;6.038;2022-09-09T16:26:46;92569.66;;;21.76
40968;BMP280;57377;45.130;6.038;2022-09-09T16:29:16;92569.94;;;22.16
40968;BMP280;57377;45.130;6.038;2022-09-09T16:31:42;92566.88;;;22.36
40968;BMP280;57377;45.130;6.038;2022-09-09T16:37:14;92571.66;;;22.05
40968;BMP280;57377;45.130;6.038;2022-09-09T16:39:53;92572.53;;;21.90